Time;durP1;ratioP1;P1;durP2;ratioP2;P2;SDS_P1;SDS_P2;PMS_P1;PMS_P2;Temp;Humidity;BMP_temperature;BMP_pressure;BME280_temperature;BME280_humidity;BME280_pressure;Samples;Min_cycle;Max_cycle;Signal;HPM_P1;HPM_P2
2022/05/11 00:01:12;;;;;;;30.90;8.70;;;19.10;21.80;;;;;;5047619;28;20474;-63
2022/05/11 00:03:40;;;;;;;33.57;9.30;;;19.10;21.80;;;;;;5048283;28;20466;-62
2022/05/11 00:06:06;;;;;;;30.10;8.27;;;19.10;21.80;;;;;;5048753;28;20489;-62
2022/05/11 00:08:33;;;;;;;30.83;8.57;;;19.10;21.90;;;;;;5049082;28;20457;-63
2022/05/11 00:11:02;;;;;;;32.27;8.20;;;19.10;21.80;;;;;;5047060;28;20464;-63
2022/05/11 00:13:29;;;;;;;30.70;8.70;;;19.10;21.80;;;;;;5046282;28;20469;-67
2022/05/11 00:15:56;;;;;;;29.80;8.27;;;19.00;21.90;;;;;;5048317;28;20501;-65
2022/05/11 00:18:23;;;;;;;30.30;8.20;;;19.00;21.90;;;;;;5048349;28;20465;-62
2022/05/11 00:20:50;;;;;;;31.57;9.33;;;19.00;21.90;;;;;;5047837;28;20482;-64
2022/05/11 00:23:16;;;;;;;29.30;8.10;;;19.00;21.90;;;;;;5054783;28;20473;-63
2022/05/11 00:25:44;;;;;;;29.90;8.10;;;19.00;21.80;;;;;;5047827;28;20976;-64
2022/05/11 00:28:12;;;;;;;32.00;8.87;;;19.00;22.00;;;;;;5047160;28;20461;-63
2022/05/11 00:30:39;;;;;;;30.33;8.97;;;19.00;22.10;;;;;;5048309;28;20510;-64
2022/05/11 00:33:07;;;;;;;31.00;9.37;;;18.90;22.20;;;;;;5048264;28;20469;-62
2022/05/11 00:35:35;;;;;;;28.93;8.30;;;18.90;22.40;;;;;;5046951;28;20482;-64
2022/05/11 00:38:04;;;;;;;31.30;9.60;;;18.90;22.40;;;;;;5042357;28;20450;-64
2022/05/11 00:40:30;;;;;;;32.30;8.20;;;18.90;22.30;;;;;;5046731;28;20485;-63
2022/05/11 00:42:57;;;;;;;31.13;9.03;;;18.90;22.30;;;;;;5048694;28;20458;-65
2022/05/11 00:45:26;;;;;;;33.13;8.20;;;18.90;22.40;;;;;;5046736;28;20986;-62
2022/05/11 00:48:00;;;;;;;32.93;8.37;;;18.80;22.40;;;;;;5048759;28;20493;-62
2022/05/11 00:50:28;;;;;;;31.13;9.80;;;18.80;22.50;;;;;;5046900;28;20486;-67
2022/05/11 00:52:59;;;;;;;31.13;9.00;;;18.80;22.80;;;;;;5051651;28;20473;-62
2022/05/11 00:55:30;;;;;;;31.03;9.40;;;18.80;23.70;;;;;;5045262;28;20493;-63
2022/05/11 00:57:59;;;;;;;32.17;9.63;;;18.70;23.20;;;;;;5046021;28;20985;-64
2022/05/11 01:00:29;;;;;;;31.13;9.50;;;18.70;23.20;;;;;;5045048;28;21018;-63
2022/05/11 01:03:00;;;;;;;30.60;9.07;;;18.70;23.40;;;;;;5047275;28;20476;-63
2022/05/11 01:05:26;;;;;;;31.13;11.60;;;18.60;23.60;;;;;;5045884;28;20457;-65
2022/05/11 01:07:56;;;;;;;30.50;9.57;;;18.60;23.90;;;;;;5048283;28;20458;-63
2022/05/11 01:10:24;;;;;;;30.20;9.47;;;18.50;23.90;;;;;;5043450;28;20997;-64
2022/05/11 01:12:54;;;;;;;31.10;9.77;;;18.50;24.20;;;;;;5046991;28;20466;-61
2022/05/11 01:15:21;;;;;;;33.50;9.20;;;18.40;24.20;;;;;;5047815;28;21011;-63
2022/05/11 01:17:49;;;;;;;31.27;9.20;;;18.40;24.10;;;;;;5044896;28;20473;-62
2022/05/11 01:20:19;;;;;;;29.03;8.70;;;18.40;24.50;;;;;;5047511;28;20493;-64
2022/05/11 01:22:51;;;;;;;32.97;9.03;;;18.40;24.60;;;;;;5040001;28;20465;-63
2022/05/11 01:25:20;;;;;;;30.40;9.20;;;18.40;24.60;;;;;;5047892;28;20489;-64
2022/05/11 01:27:48;;;;;;;29.40;8.93;;;18.30;24.40;;;;;;5044506;28;20473;-65
2022/05/11 01:30:17;;;;;;;31.40;9.50;;;18.30;24.80;;;;;;5047208;28;20497;-64
2022/05/11 01:32:46;;;;;;;32.00;8.73;;;18.30;24.70;;;;;;5047757;28;20454;-66
2022/05/11 01:35:24;;;;;;;31.13;9.10;;;18.20;25.20;;;;;;5045279;28;21056;-67
2022/05/11 01:38:02;;;;;;;31.47;10.23;;;18.20;25.50;;;;;;5046517;28;20963;-65
2022/05/11 01:40:30;;;;;;;31.33;10.87;;;18.10;25.80;;;;;;5045979;28;20489;-64
2022/05/11 01:42:57;;;;;;;31.90;10.67;;;18.10;25.30;;;;;;5046839;28;20466;-64
2022/05/11 01:45:24;;;;;;;30.90;9.33;;;18.10;25.50;;;;;;5046393;28;20461;-62
2022/05/11 01:47:54;;;;;;;32.17;9.20;;;18.00;25.40;;;;;;5046390;28;20458;-64
2022/05/11 01:50:21;;;;;;;32.80;10.20;;;18.00;25.80;;;;;;5045569;28;20490;-64
2022/05/11 01:52:48;;;;;;;34.90;9.47;;;18.00;25.90;;;;;;5047562;28;20461;-63
2022/05/11 01:55:15;;;;;;;30.30;8.47;;;17.90;25.80;;;;;;5040326;28;20458;-64
2022/05/11 01:57:43;;;;;;;30.97;9.73;;;17.80;25.80;;;;;;5046237;28;20496;-63
2022/05/11 02:00:11;;;;;;;30.40;9.33;;;17.80;25.90;;;;;;5046046;28;20493;-62
2022/05/11 02:02:38;;;;;;;31.93;10.03;;;17.70;26.20;;;;;;5043409;28;20458;-65
2022/05/11 02:07:50;;;;;;;32.10;10.20;;;17.60;26.20;;;;;;5046726;28;20560;-65
2022/05/11 02:10:18;;;;;;;33.03;9.80;;;17.60;26.40;;;;;;5044864;28;20577;-63
2022/05/11 02:12:47;;;;;;;32.10;10.00;;;17.60;26.60;;;;;;5045535;28;20551;-62
2022/05/11 02:15:14;;;;;;;31.03;9.73;;;17.60;26.60;;;;;;5045676;28;20462;-62
2022/05/11 02:17:42;;;;;;;31.53;10.00;;;17.50;26.80;;;;;;5047159;28;20520;-63
2022/05/11 02:20:11;;;;;;;32.50;11.03;;;17.50;27.00;;;;;;5045327;28;20505;-63
2022/05/11 02:22:38;;;;;;;34.07;9.50;;;17.50;26.90;;;;;;5046174;28;20465;-63
2022/05/11 02:25:06;;;;;;;32.93;10.57;;;17.40;27.00;;;;;;5047347;28;20462;-62
2022/05/11 02:27:33;;;;;;;31.93;10.60;;;17.40;27.10;;;;;;5045372;28;20549;-65
2022/05/11 02:30:02;;;;;;;32.03;9.93;;;17.30;27.20;;;;;;5049572;28;20489;-63
2022/05/11 02:32:29;;;;;;;30.67;10.17;;;17.30;27.40;;;;;;5049569;28;21083;-63
2022/05/11 02:35:14;;;;;;;33.00;10.90;;;17.30;27.20;;;;;;5048634;28;20870;-65
2022/05/11 02:37:42;;;;;;;31.90;10.50;;;17.20;27.40;;;;;;5052095;28;20466;-68
2022/05/11 02:40:10;;;;;;;30.70;9.70;;;17.20;27.30;;;;;;5053078;28;20496;-64
2022/05/11 02:42:37;;;;;;;33.23;10.07;;;17.10;27.60;;;;;;5051210;28;20450;-62
2022/05/11 02:45:07;;;;;;;30.90;10.20;;;17.00;27.70;;;;;;5049668;28;20485;-64
2022/05/11 02:47:34;;;;;;;32.70;10.90;;;17.00;28.20;;;;;;5051366;28;20454;-67
2022/05/11 02:50:03;;;;;;;30.90;9.97;;;16.90;28.20;;;;;;5051040;28;20477;-62
2022/05/11 02:52:30;;;;;;;32.00;11.33;;;16.90;28.20;;;;;;5049492;28;20508;-65
2022/05/11 02:54:57;;;;;;;32.03;11.13;;;16.90;28.20;;;;;;5049296;28;20967;-62
2022/05/11 02:57:24;;;;;;;33.77;11.13;;;16.80;28.50;;;;;;5050835;28;20493;-62
2022/05/11 02:59:50;;;;;;;32.23;10.73;;;16.80;28.70;;;;;;5050687;28;20477;-64
2022/05/11 03:02:20;;;;;;;32.90;11.50;;;16.70;28.80;;;;;;5047714;28;20474;-63
2022/05/11 03:04:47;;;;;;;32.30;10.90;;;16.70;29.20;;;;;;5046616;28;20999;-61
2022/05/11 03:07:14;;;;;;;31.43;10.40;;;16.70;29.70;;;;;;5049843;28;20454;-62
2022/05/11 03:09:41;;;;;;;31.43;9.80;;;16.60;29.30;;;;;;5046373;28;20490;-64
2022/05/11 03:12:08;;;;;;;33.37;10.70;;;16.70;29.30;;;;;;5049964;28;20948;-66
2022/05/11 03:14:35;;;;;;;31.70;10.87;;;16.60;29.50;;;;;;5045097;28;20474;-61
2022/05/11 03:17:03;;;;;;;30.00;9.80;;;16.60;29.40;;;;;;5050013;28;20481;-64
2022/05/11 03:19:31;;;;;;;32.20;11.10;;;16.60;29.70;;;;;;5049572;28;21289;-61
2022/05/11 03:21:58;;;;;;;31.80;10.90;;;16.50;29.80;;;;;;5050232;28;20964;-63
2022/05/11 03:24:25;;;;;;;32.27;11.47;;;16.50;30.30;;;;;;5049944;28;20457;-65
2022/05/11 03:26:51;;;;;;;32.57;11.17;;;16.50;30.40;;;;;;5048118;28;20461;-63
2022/05/11 03:29:19;;;;;;;32.73;11.70;;;16.50;30.50;;;;;;5048322;28;20473;-62
2022/05/11 03:34:36;;;;;;;38.63;11.50;;;16.40;30.40;;;;;;5043212;28;20469;-63
2022/05/11 03:34:37;;;;;;;32.80;12.80;;;16.40;31.00;;;;;;5043064;28;20948;-61
2022/05/11 03:37:05;;;;;;;32.73;12.30;;;16.40;31.10;;;;;;5046527;28;20485;-62
2022/05/11 03:39:31;;;;;;;36.33;11.97;;;16.40;31.30;;;;;;5049050;28;20496;-62
2022/05/11 03:41:59;;;;;;;36.50;12.10;;;16.40;31.60;;;;;;5048869;28;20464;-63
2022/05/11 03:44:26;;;;;;;34.20;12.10;;;16.40;31.60;;;;;;5040693;28;20542;-64
2022/05/11 03:46:52;;;;;;;33.90;13.03;;;16.40;32.40;;;;;;5046390;28;20454;-63
2022/05/11 03:49:19;;;;;;;36.50;12.80;;;16.40;32.20;;;;;;5041444;28;20574;-62
2022/05/11 03:51:47;;;;;;;36.20;12.80;;;16.40;32.30;;;;;;5044929;28;20458;-65
2022/05/11 03:54:14;;;;;;;35.13;12.70;;;16.40;32.20;;;;;;5047773;28;20481;-66
2022/05/11 03:56:41;;;;;;;33.73;12.00;;;16.40;32.10;;;;;;5047869;28;21033;-62
2022/05/11 03:59:08;;;;;;;35.87;12.90;;;16.40;31.90;;;;;;5046450;28;20517;-64
2022/05/11 04:01:35;;;;;;;34.30;12.50;;;16.40;31.90;;;;;;5046544;28;20497;-66
2022/05/11 04:04:02;;;;;;;40.40;12.33;;;16.50;31.80;;;;;;5048423;28;20493;-64
2022/05/11 04:06:29;;;;;;;35.17;12.80;;;16.50;31.60;;;;;;5044613;28;20493;-66
2022/05/11 04:08:57;;;;;;;34.47;11.83;;;16.50;31.70;;;;;;5041128;28;20486;-61
2022/05/11 04:11:24;;;;;;;32.33;11.00;;;16.50;31.70;;;;;;5047689;28;20458;-61
2022/05/11 04:13:51;;;;;;;33.03;11.00;;;16.50;31.80;;;;;;5049781;28;20454;-60
2022/05/11 04:16:18;;;;;;;34.83;11.57;;;16.50;31.60;;;;;;5049035;28;20648;-60
2022/05/11 04:18:46;;;;;;;35.90;12.30;;;16.50;31.80;;;;;;5045311;28;20462;-60
2022/05/11 04:21:14;;;;;;;34.30;11.53;;;16.50;31.60;;;;;;5049819;28;20500;-61
2022/05/11 04:23:41;;;;;;;33.27;11.10;;;16.50;31.60;;;;;;5049272;28;20892;-61
2022/05/11 04:26:10;;;;;;;33.47;10.90;;;16.60;31.70;;;;;;5049690;28;20939;-61
2022/05/11 04:28:38;;;;;;;34.00;10.80;;;16.60;31.50;;;;;;5046994;28;20557;-60
2022/05/11 04:31:07;;;;;;;35.30;10.90;;;16.60;31.30;;;;;;5048005;28;21076;-60
2022/05/11 04:33:34;;;;;;;32.73;10.67;;;16.70;31.50;;;;;;5047972;28;20462;-61
2022/05/11 04:36:01;;;;;;;33.33;10.93;;;16.70;31.20;;;;;;5047979;28;21026;-60
2022/05/11 04:38:28;;;;;;;37.73;10.73;;;16.80;31.20;;;;;;5048172;28;20466;-60
2022/05/11 04:40:55;;;;;;;32.77;10.80;;;16.80;31.00;;;;;;5047998;28;20486;-61
2022/05/11 04:43:23;;;;;;;33.80;10.50;;;16.90;30.90;;;;;;5048206;28;20465;-61
2022/05/11 04:45:50;;;;;;;32.87;9.90;;;16.90;30.80;;;;;;5049148;28;20556;-60
2022/05/11 04:48:18;;;;;;;34.77;12.07;;;17.00;30.60;;;;;;5047578;28;20454;-61
2022/05/11 04:50:46;;;;;;;31.83;10.27;;;17.10;30.60;;;;;;5048268;28;20488;-60
2022/05/11 04:53:15;;;;;;;35.27;11.10;;;17.20;30.40;;;;;;5045234;28;20458;-64
2022/05/11 04:55:44;;;;;;;32.53;10.67;;;17.30;30.40;;;;;;5050999;28;20447;-61
2022/05/11 04:58:11;;;;;;;33.50;11.07;;;17.40;30.20;;;;;;5047933;28;20489;-61
2022/05/11 05:00:39;;;;;;;35.43;10.00;;;17.70;29.50;;;;;;5047826;28;20466;-60
2022/05/11 05:03:09;;;;;;;32.10;9.63;;;18.20;28.70;;;;;;5047803;28;20514;-61
2022/05/11 05:05:36;;;;;;;34.17;10.10;;;18.80;27.10;;;;;;5052313;28;20469;-60
2022/05/11 05:08:03;;;;;;;34.87;9.40;;;19.30;25.80;;;;;;5048852;28;20458;-62
2022/05/11 05:10:30;;;;;;;33.20;9.53;;;19.80;24.10;;;;;;5048299;28;20848;-60
2022/05/11 05:13:01;;;;;;;33.87;9.70;;;20.30;22.40;;;;;;5047207;28;20851;-62
2022/05/11 05:15:28;;;;;;;32.20;9.60;;;20.80;21.30;;;;;;5048335;28;20470;-62
2022/05/11 05:17:56;;;;;;;33.27;9.30;;;21.10;20.40;;;;;;5048736;28;20863;-61
2022/05/11 05:20:23;;;;;;;34.10;9.47;;;21.20;19.90;;;;;;5048269;28;20482;-61
2022/05/11 05:22:50;;;;;;;31.93;9.40;;;21.40;19.60;;;;;;5047447;28;20466;-60
2022/05/11 05:25:17;;;;;;;33.10;9.20;;;21.80;19.20;;;;;;5048888;28;20469;-61
2022/05/11 05:27:43;;;;;;;32.90;9.13;;;22.10;18.70;;;;;;5048133;28;20502;-61
2022/05/11 05:33:05;;;;;;;32.60;8.67;;;23.20;16.90;;;;;;5019385;28;20469;-60
2022/05/11 05:35:32;;;;;;;30.10;7.93;;;23.70;16.00;;;;;;5048047;28;20485;-61
2022/05/11 05:37:59;;;;;;;35.50;8.90;;;24.40;14.60;;;;;;5047869;28;21050;-61
2022/05/11 05:40:26;;;;;;;31.20;8.87;;;24.80;13.10;;;;;;5048132;28;20493;-60
2022/05/11 05:42:52;;;;;;;30.97;8.67;;;25.10;12.40;;;;;;5047766;28;20465;-63
2022/05/11 05:45:19;;;;;;;30.73;8.03;;;25.50;12.10;;;;;;5046817;28;20469;-61
2022/05/11 05:47:46;;;;;;;31.70;8.27;;;26.30;11.00;;;;;;5039329;28;20450;-61
2022/05/11 05:50:14;;;;;;;31.83;7.93;;;27.20;9.50;;;;;;5048019;28;20473;-60
2022/05/11 05:52:42;;;;;;;29.97;7.40;;;27.90;8.20;;;;;;5047634;28;20491;-61
2022/05/11 05:55:10;;;;;;;29.67;7.70;;;28.50;7.00;;;;;;5047093;28;20557;-62
2022/05/11 05:57:36;;;;;;;30.53;7.93;;;29.00;6.40;;;;;;5047679;28;21022;-61
2022/05/11 06:00:05;;;;;;;29.63;8.33;;;29.20;5.80;;;;;;5047892;28;20485;-61
2022/05/11 06:02:32;;;;;;;30.50;8.10;;;29.30;5.30;;;;;;5046825;28;20473;-60
2022/05/11 06:04:58;;;;;;;29.50;8.83;;;29.40;5.00;;;;;;5048933;28;20875;-63
2022/05/11 06:07:26;;;;;;;30.13;8.13;;;29.50;4.80;;;;;;5047496;28;20458;-61
2022/05/11 06:09:53;;;;;;;29.20;7.90;;;29.70;4.50;;;;;;5047914;28;20478;-61
2022/05/11 06:12:20;;;;;;;35.80;8.93;;;30.20;4.00;;;;;;5047563;28;20547;-61
2022/05/11 06:14:47;;;;;;;30.07;8.00;;;30.60;3.60;;;;;;5046601;28;20553;-61
2022/05/11 06:17:15;;;;;;;29.30;7.87;;;31.00;3.50;;;;;;5047666;28;20485;-61
2022/05/11 06:19:42;;;;;;;28.83;8.33;;;31.40;2.70;;;;;;5046948;28;20490;-61
2022/05/11 06:22:09;;;;;;;28.23;8.07;;;32.10;2.30;;;;;;5047356;28;20462;-61
2022/05/11 06:24:37;;;;;;;28.03;8.10;;;33.00;1.20;;;;;;5046551;28;20466;-60
2022/05/11 06:27:04;;;;;;;27.73;8.70;;;33.80;1.00;;;;;;5047057;28;20461;-60
2022/05/11 06:29:31;;;;;;;26.87;6.70;;;34.40;1.00;;;;;;5047440;28;20478;-61
2022/05/11 06:31:58;;;;;;;29.73;7.93;;;35.00;1.00;;;;;;5047277;28;20462;-62
2022/05/11 06:34:25;;;;;;;27.40;7.47;;;35.50;1.00;;;;;;5047752;28;20450;-62
2022/05/11 06:36:52;;;;;;;26.80;7.40;;;36.10;1.00;;;;;;5046513;28;20486;-61
2022/05/11 06:39:19;;;;;;;27.70;7.40;;;36.70;1.00;;;;;;5046862;28;20490;-62
2022/05/11 06:41:47;;;;;;;27.70;7.73;;;37.10;1.00;;;;;;5047029;28;20458;-62
2022/05/11 06:44:14;;;;;;;26.00;7.57;;;37.60;1.00;;;;;;5047467;28;20458;-63
2022/05/11 06:46:40;;;;;;;26.77;6.80;;;38.00;1.00;;;;;;5046363;28;20470;-62
2022/05/11 06:49:08;;;;;;;25.33;6.90;;;38.40;1.00;;;;;;5047177;28;20482;-62
2022/05/11 06:51:35;;;;;;;25.33;7.10;;;38.80;1.00;;;;;;5047165;28;20454;-60
2022/05/11 06:59:33;;;;;;;28.47;7.07;;;40.10;1.00;;;;;;5047500;28;20469;-61
2022/05/11 07:02:03;;;;;;;26.20;6.60;;;40.40;1.00;;;;;;5045537;28;20481;-61
2022/05/11 07:04:33;;;;;;;24.13;6.83;;;40.80;1.00;;;;;;5047141;28;20944;-61
2022/05/11 07:07:01;;;;;;;25.70;7.53;;;41.00;1.00;;;;;;5045747;28;20490;-61
2022/05/11 07:09:31;;;;;;;27.43;7.27;;;41.40;1.00;;;;;;5052124;28;20896;-62
2022/05/11 07:12:20;;;;;;;24.87;6.73;;;41.90;1.00;;;;;;5044874;28;20462;-61
2022/05/11 07:14:48;;;;;;;24.63;6.23;;;42.20;1.00;;;;;;5041841;28;20544;-60
2022/05/11 07:17:25;;;;;;;25.60;6.57;;;42.70;1.00;;;;;;5048367;28;20551;-61
2022/05/11 07:19:51;;;;;;;23.77;6.27;;;43.00;1.00;;;;;;5044577;28;20481;-60
2022/05/11 07:22:18;;;;;;;25.57;6.50;;;43.30;1.00;;;;;;5038366;28;20461;-60
2022/05/11 07:24:45;;;;;;;24.50;6.73;;;43.50;1.00;;;;;;5043634;28;20515;-60
2022/05/11 07:27:13;;;;;;;26.70;6.93;;;43.70;1.00;;;;;;5048844;28;21236;-61
2022/05/11 07:29:40;;;;;;;24.73;6.70;;;44.00;1.00;;;;;;5050230;28;20481;-60
2022/05/11 07:32:09;;;;;;;23.17;6.70;;;44.30;1.00;;;;;;5049714;28;21167;-60
2022/05/11 07:34:35;;;;;;;24.70;6.73;;;44.50;1.00;;;;;;5050389;28;20934;-60
2022/05/11 07:37:02;;;;;;;23.30;6.10;;;44.70;1.00;;;;;;5049814;28;20458;-61
2022/05/11 07:39:29;;;;;;;25.90;6.90;;;45.00;1.00;;;;;;5048710;28;20871;-61
2022/05/11 07:41:56;;;;;;;23.03;5.80;;;45.10;1.00;;;;;;5049914;28;20461;-60
2022/05/11 07:44:24;;;;;;;23.90;6.07;;;45.40;1.00;;;;;;5050305;28;20458;-61
2022/05/11 07:46:51;;;;;;;24.97;5.90;;;45.80;1.00;;;;;;5049914;28;20484;-61
2022/05/11 07:49:18;;;;;;;22.00;5.60;;;46.20;1.00;;;;;;5049397;28;20576;-61
2022/05/11 07:51:46;;;;;;;22.27;5.73;;;46.60;1.00;;;;;;5050057;28;20508;-61
2022/05/11 07:54:13;;;;;;;25.20;5.87;;;46.90;1.00;;;;;;5050397;28;20454;-62
2022/05/11 08:02:10;;;;;;;27.83;5.83;;;47.90;1.00;;;;;;5048891;28;20503;-61
2022/05/11 08:04:38;;;;;;;22.27;5.27;;;48.10;1.00;;;;;;5050033;28;20454;-62
2022/05/11 08:07:05;;;;;;;22.23;5.13;;;48.40;1.00;;;;;;5052351;28;20652;-61
2022/05/11 08:09:33;;;;;;;23.47;5.00;;;48.50;1.00;;;;;;5048690;28;20535;-60
2022/05/11 08:12:00;;;;;;;22.90;5.20;;;48.70;1.00;;;;;;5050074;28;20509;-61
2022/05/11 08:14:28;;;;;;;20.40;4.20;;;49.00;1.00;;;;;;5050130;28;20825;-61
2022/05/11 08:16:55;;;;;;;20.83;4.70;;;49.30;1.00;;;;;;5049725;28;20465;-61
2022/05/11 08:19:23;;;;;;;20.77;4.80;;;49.40;1.00;;;;;;5047748;28;20494;-61
2022/05/11 08:21:51;;;;;;;21.40;4.70;;;49.70;1.00;;;;;;5049718;28;20462;-61
2022/05/11 08:24:18;;;;;;;20.30;4.40;;;49.80;1.00;;;;;;5049216;28;20558;-61
2022/05/11 08:26:46;;;;;;;22.13;4.70;;;49.80;1.00;;;;;;5049120;28;20473;-61
2022/05/11 08:33:18;;;;;;;23.30;4.70;;;49.90;1.00;;;;;;5049218;28;20474;-62
2022/05/11 08:34:47;;;;;;;20.80;4.87;;;50.40;1.00;;;;;;5048969;28;20492;-60
2022/05/11 08:37:14;;;;;;;22.20;4.03;;;50.30;1.00;;;;;;5049335;28;20458;-61
2022/05/11 08:39:41;;;;;;;22.47;4.37;;;50.20;1.00;;;;;;5048960;28;20520;-63
2022/05/11 08:42:09;;;;;;;20.00;4.13;;;49.90;1.00;;;;;;5047998;28;20480;-61
2022/05/11 08:44:39;;;;;;;20.37;4.60;;;50.10;1.00;;;;;;5049405;28;20545;-62
2022/05/11 08:47:15;;;;;;;22.33;4.57;;;50.60;1.00;;;;;;5049155;28;20472;-62
2022/05/11 08:49:50;;;;;;;24.80;5.50;;;50.60;1.00;;;;;;5048763;28;20478;-62
2022/05/11 08:52:28;;;;;;;20.80;4.50;;;50.70;1.00;;;;;;5047941;28;20461;-62
2022/05/11 08:54:59;;;;;;;21.97;4.93;;;50.50;1.00;;;;;;5048849;28;20557;-62
2022/05/11 08:57:28;;;;;;;20.90;4.60;;;50.00;1.00;;;;;;5048689;28;20454;-61
2022/05/11 09:00:00;;;;;;;21.10;4.40;;;50.00;1.00;;;;;;5048967;28;20486;-62
2022/05/11 09:02:37;;;;;;;22.10;4.43;;;50.50;1.00;;;;;;5047098;28;20474;-62
2022/05/11 09:05:05;;;;;;;21.80;4.50;;;50.70;1.00;;;;;;5048670;28;20461;-62
2022/05/11 09:07:37;;;;;;;21.20;4.23;;;50.70;1.00;;;;;;5050182;28;20488;-62
2022/05/11 09:10:06;;;;;;;20.67;4.20;;;51.00;1.00;;;;;;5047917;28;20474;-62
2022/05/11 09:12:33;;;;;;;19.80;4.30;;;51.30;1.00;;;;;;5047535;28;20464;-61
2022/05/11 09:15:01;;;;;;;25.03;4.37;;;51.50;1.00;;;;;;5048195;28;20458;-60
2022/05/11 09:17:32;;;;;;;19.90;3.90;;;51.80;1.00;;;;;;5048090;28;20468;-62
2022/05/11 09:20:07;;;;;;;19.97;3.73;;;51.90;1.00;;;;;;5048370;28;20478;-62
2022/05/11 09:22:37;;;;;;;20.77;3.73;;;52.00;1.00;;;;;;5047195;28;20487;-61
2022/05/11 09:25:20;;;;;;;20.10;3.70;;;52.10;1.00;;;;;;5048439;28;20948;-61
2022/05/11 09:27:49;;;;;;;19.40;3.80;;;51.90;1.00;;;;;;5051641;28;21160;-63
2022/05/11 09:30:20;;;;;;;21.50;4.10;;;51.90;1.00;;;;;;5047763;28;20473;-63
2022/05/11 09:32:49;;;;;;;20.97;4.00;;;51.90;1.00;;;;;;5045040;28;21046;-62
2022/05/11 09:35:27;;;;;;;20.03;3.70;;;51.90;1.00;;;;;;5047974;28;20516;-61
2022/05/11 09:38:27;;;;;;;21.07;3.60;;;51.40;1.00;;;;;;5047636;28;20489;-61
2022/05/11 09:40:57;;;;;;;19.70;4.00;;;51.00;1.00;;;;;;5040629;28;20482;-62
2022/05/11 09:43:30;;;;;;;20.57;3.60;;;51.00;1.00;;;;;;5046469;28;22258;-62
2022/05/11 09:45:57;;;;;;;20.47;3.83;;;51.20;1.00;;;;;;5047889;28;20511;-62
2022/05/11 09:48:30;;;;;;;20.87;3.70;;;51.20;1.00;;;;;;5047697;28;20461;-62
2022/05/11 09:51:15;;;;;;;20.60;3.47;;;50.10;1.00;;;;;;5047672;28;21255;-62
2022/05/11 09:53:51;;;;;;;20.47;4.20;;;49.10;1.00;;;;;;5046367;28;20508;-63
2022/05/11 09:56:22;;;;;;;20.80;3.60;;;49.30;1.00;;;;;;5048274;28;20460;-62
2022/05/11 09:58:49;;;;;;;21.30;4.20;;;48.50;1.00;;;;;;5047642;28;20511;-62
2022/05/11 10:01:22;;;;;;;21.17;3.80;;;47.00;1.00;;;;;;5047372;28;20473;-61
2022/05/11 10:03:56;;;;;;;21.70;3.87;;;45.50;1.00;;;;;;5044120;28;20960;-61
2022/05/11 10:06:25;;;;;;;20.97;3.40;;;43.90;1.00;;;;;;5047944;28;20690;-63
2022/05/11 10:08:53;;;;;;;22.93;4.17;;;42.40;1.00;;;;;;5047644;28;20457;-60
2022/05/11 10:11:23;;;;;;;22.47;4.13;;;41.00;1.00;;;;;;5044703;28;20454;-61
2022/05/11 10:13:56;;;;;;;22.60;3.90;;;39.70;1.00;;;;;;5040931;28;20458;-62
2022/05/11 10:22:20;;;;;;;23.17;4.00;;;36.50;1.00;;;;;;5042726;28;20933;-62
2022/05/11 10:25:03;;;;;;;28.00;4.83;;;35.70;1.00;;;;;;5044448;28;20463;-61
2022/05/11 10:27:36;;;;;;;24.70;4.40;;;35.10;1.00;;;;;;5047413;28;20454;-61
2022/05/11 10:30:08;;;;;;;23.33;4.00;;;34.50;1.00;;;;;;5047312;28;20480;-62
2022/05/11 10:32:50;;;;;;;24.70;4.13;;;34.00;1.00;;;;;;5046728;28;20519;-62
2022/05/11 10:35:22;;;;;;;24.27;4.90;;;33.60;1.00;;;;;;5044737;28;20462;-61
2022/05/11 10:38:13;;;;;;;25.60;4.27;;;33.20;1.00;;;;;;5047499;28;20456;-61
2022/05/11 10:40:49;;;;;;;23.50;4.13;;;32.80;1.00;;;;;;5046518;28;20482;-61
2022/05/11 10:43:31;;;;;;;26.60;6.10;;;32.50;1.00;;;;;;5047985;28;20442;-61
2022/05/11 10:46:05;;;;;;;25.20;4.47;;;32.20;1.00;;;;;;5040704;28;20465;-61
2022/05/11 10:48:56;;;;;;;24.70;4.87;;;31.70;1.00;;;;;;5048703;28;20508;-64
2022/05/11 10:51:32;;;;;;;24.80;4.60;;;31.30;1.00;;;;;;5041668;28;20468;-60
2022/05/11 10:54:06;;;;;;;25.63;5.60;;;31.00;1.00;;;;;;5051297;28;20460;-62
2022/05/11 10:56:51;;;;;;;29.73;5.90;;;30.70;1.00;;;;;;5050216;28;20462;-61
2022/05/11 10:59:50;;;;;;;27.50;5.60;;;30.50;1.00;;;;;;5050764;28;20489;-59
2022/05/11 11:02:43;;;;;;;26.97;5.60;;;30.30;1.10;;;;;;5030892;28;20473;-60
2022/05/11 11:05:16;;;;;;;25.30;5.30;;;30.20;1.10;;;;;;5050008;28;20489;-60
2022/05/11 11:07:52;;;;;;;25.07;4.80;;;29.90;1.60;;;;;;5049790;28;20736;-60
2022/05/11 11:10:26;;;;;;;25.60;4.67;;;29.80;1.00;;;;;;5051160;28;21157;-60
2022/05/11 11:13:22;;;;;;;24.83;4.83;;;29.60;1.70;;;;;;5045335;28;20954;-61
2022/05/11 11:15:51;;;;;;;27.30;4.77;;;29.60;2.20;;;;;;5052307;28;20458;-60
2022/05/11 11:18:24;;;;;;;25.97;4.60;;;29.30;1.30;;;;;;5052872;28;20978;-61
2022/05/11 11:20:51;;;;;;;26.73;5.40;;;29.20;1.80;;;;;;5052188;28;20481;-61
2022/05/11 11:23:35;;;;;;;26.10;4.97;;;29.10;3.70;;;;;;5051420;28;20462;-61
2022/05/11 11:26:04;;;;;;;25.63;5.13;;;29.10;3.70;;;;;;5047273;28;20457;-60
2022/05/11 11:28:34;;;;;;;25.33;4.57;;;29.00;2.80;;;;;;5049089;28;20462;-61
2022/05/11 11:31:21;;;;;;;25.87;5.10;;;29.00;3.50;;;;;;5049542;28;20466;-62
2022/05/11 11:34:18;;;;;;;26.23;4.50;;;29.00;3.10;;;;;;5050523;28;20453;-61
2022/05/11 11:36:44;;;;;;;26.87;4.60;;;28.90;1.20;;;;;;5050771;28;20784;-61
2022/05/11 11:39:20;;;;;;;26.20;4.40;;;28.90;1.60;;;;;;5049051;28;20493;-61
2022/05/11 11:42:05;;;;;;;26.70;4.47;;;28.80;1.50;;;;;;5049006;28;20979;-62
2022/05/11 11:44:38;;;;;;;28.40;5.40;;;28.70;1.90;;;;;;5044275;28;20470;-60
2022/05/11 11:47:38;;;;;;;26.00;5.53;;;28.70;2.10;;;;;;5047503;28;21195;-62
2022/05/11 11:50:12;;;;;;;26.27;5.40;;;28.60;2.60;;;;;;5043391;28;20860;-62
2022/05/11 11:52:41;;;;;;;25.70;5.23;;;28.60;3.40;;;;;;5041144;28;20530;-63
2022/05/11 11:55:25;;;;;;;25.03;4.80;;;28.60;2.60;;;;;;5046269;28;20972;-60
2022/05/11 11:57:56;;;;;;;26.97;4.67;;;28.50;2.60;;;;;;5047432;28;20457;-61
2022/05/11 12:00:53;;;;;;;26.33;4.70;;;28.50;2.90;;;;;;5047623;28;21014;-60
2022/05/11 12:03:24;;;;;;;25.90;4.57;;;28.50;2.00;;;;;;5043384;28;20461;-61
2022/05/11 12:05:54;;;;;;;28.47;5.03;;;28.40;1.60;;;;;;5046972;28;20863;-60
2022/05/11 12:16:52;;;;;;;25.40;4.07;;;28.00;1.00;;;;;;5046294;28;20577;-60
2022/05/11 12:19:20;;;;;;;28.73;4.97;;;27.90;1.00;;;;;;5043350;28;20999;-60
2022/05/11 12:21:56;;;;;;;26.70;4.47;;;27.80;1.00;;;;;;5043944;28;20462;-59
2022/05/11 12:24:29;;;;;;;25.20;3.83;;;27.70;1.00;;;;;;5044512;28;20462;-61
2022/05/11 12:27:00;;;;;;;26.87;4.40;;;27.70;1.00;;;;;;5046238;28;20458;-62
2022/05/11 12:32:20;;;;;;;25.57;4.30;;;27.60;1.60;;;;;;5041961;28;20504;-61
2022/05/11 12:34:47;;;;;;;26.27;4.57;;;27.50;1.30;;;;;;5042937;28;20971;-60
2022/05/11 12:37:25;;;;;;;27.60;4.97;;;27.50;1.10;;;;;;5050005;28;20468;-61
2022/05/11 12:39:58;;;;;;;27.70;4.40;;;27.40;1.40;;;;;;5041333;28;20489;-61
2022/05/11 12:42:40;;;;;;;26.50;4.20;;;27.40;1.30;;;;;;5047083;28;20458;-60
2022/05/11 12:45:10;;;;;;;25.77;4.83;;;27.40;1.90;;;;;;5043839;28;20902;-59
2022/05/11 12:47:40;;;;;;;25.90;4.33;;;27.40;2.60;;;;;;5043334;28;20459;-61
2022/05/11 12:50:11;;;;;;;26.93;4.80;;;27.40;1.50;;;;;;5048127;28;21000;-62
2022/05/11 12:52:38;;;;;;;27.40;5.60;;;27.30;1.90;;;;;;5046953;28;20994;-61
2022/05/11 12:55:06;;;;;;;29.03;4.90;;;27.30;2.30;;;;;;5048542;28;20454;-60
2022/05/11 12:57:41;;;;;;;25.27;4.17;;;27.30;3.00;;;;;;5042380;28;20455;-61
2022/05/11 13:00:17;;;;;;;29.90;5.00;;;27.30;3.20;;;;;;5048080;28;20694;-60
2022/05/11 13:02:45;;;;;;;25.87;4.40;;;27.30;2.40;;;;;;5046991;28;20469;-60
2022/05/11 13:05:16;;;;;;;25.30;4.60;;;27.30;2.90;;;;;;5046593;28;20553;-65
2022/05/11 13:07:50;;;;;;;25.97;4.67;;;27.30;2.60;;;;;;5044719;28;20462;-62
2022/05/11 13:10:21;;;;;;;27.40;4.70;;;27.30;2.40;;;;;;5048146;28;20533;-60
2022/05/11 13:12:52;;;;;;;25.80;4.60;;;27.30;3.00;;;;;;5041103;28;20489;-61
2022/05/11 13:15:35;;;;;;;26.90;5.10;;;27.30;3.00;;;;;;5046142;28;20458;-59
2022/05/11 13:18:04;;;;;;;26.40;5.07;;;27.30;2.60;;;;;;5038996;28;20458;-60
2022/05/11 13:20:36;;;;;;;26.00;4.90;;;27.30;3.10;;;;;;5038107;28;20486;-60
2022/05/11 13:23:09;;;;;;;25.90;4.90;;;27.30;3.00;;;;;;5046721;28;20883;-60
2022/05/11 13:25:42;;;;;;;30.00;5.50;;;27.30;2.50;;;;;;5046736;28;20476;-61
2022/05/11 13:28:12;;;;;;;26.40;4.67;;;27.30;3.90;;;;;;5048320;28;20489;-60
2022/05/11 13:30:42;;;;;;;28.30;5.20;;;27.30;4.40;;;;;;5046929;28;20489;-60
2022/05/11 13:33:29;;;;;;;27.10;5.30;;;27.30;4.20;;;;;;5046862;28;21011;-61